createdAt,value
2019-03-15T00:00:15.939Z,6.88
2019-03-15T00:03:19.092Z,6.92
2019-03-15T00:06:22.379Z,6.88
2019-03-15T00:09:26.176Z,6.89
2019-03-15T00:12:29.292Z,6.98
2019-03-15T00:15:32.490Z,7.00
2019-03-15T00:18:35.799Z,7.00
2019-03-15T00:21:38.979Z,7.01
2019-03-15T00:24:42.176Z,7.03
2019-03-15T00:27:45.372Z,7.01
2019-03-15T00:30:48.551Z,7.03
2019-03-15T00:33:51.738Z,7.05
2019-03-15T00:36:55.959Z,7.01
2019-03-15T00:39:59.243Z,7.06
2019-03-15T00:43:02.363Z,7.09
2019-03-15T00:46:05.661Z,7.11
2019-03-15T00:49:08.844Z,7.16
2019-03-15T00:52:12.067Z,7.12
2019-03-15T00:55:15.340Z,7.08
2019-03-15T00:58:18.535Z,7.04
2019-03-15T01:01:21.731Z,7.04
2019-03-15T01:04:24.920Z,6.99
2019-03-15T01:07:28.007Z,7.00
2019-03-15T01:10:31.214Z,6.95
2019-03-15T01:13:34.435Z,6.91
2019-03-15T01:16:37.584Z,6.86
2019-03-15T01:19:40.679Z,6.89
2019-03-15T01:22:43.984Z,6.84
2019-03-15T01:25:47.241Z,6.82
2019-03-15T01:28:50.387Z,6.79
2019-03-15T01:31:53.673Z,6.77
2019-03-15T01:34:56.872Z,6.78
2019-03-15T01:38:00.073Z,6.80
2019-03-15T01:41:04.284Z,6.80
2019-03-15T01:44:06.487Z,6.86
2019-03-15T01:47:09.642Z,6.89
2019-03-15T01:50:12.845Z,6.88
2019-03-15T01:53:16.024Z,6.84
2019-03-15T01:56:19.132Z,6.87
2019-03-15T01:59:23.012Z,6.89
2019-03-15T02:02:25.628Z,6.94
2019-03-15T02:05:28.812Z,6.96
2019-03-15T02:08:31.907Z,6.94
2019-03-15T02:11:35.023Z,6.92
2019-03-15T02:14:38.301Z,6.93
2019-03-15T02:17:41.570Z,6.92
2019-03-15T02:20:44.683Z,6.91
2019-03-15T02:23:48.400Z,6.91
2019-03-15T02:26:51.180Z,6.89
2019-03-15T02:29:54.422Z,6.87
2019-03-15T02:32:57.645Z,6.85
2019-03-15T02:36:00.847Z,6.84
2019-03-15T02:39:05.399Z,6.88
2019-03-15T02:42:08.595Z,6.92
2019-03-15T02:45:11.771Z,6.93
2019-03-15T02:48:14.975Z,6.92
2019-03-15T02:51:18.162Z,6.90
2019-03-15T02:54:21.374Z,6.90
2019-03-15T02:57:24.662Z,6.91
2019-03-15T03:00:27.955Z,6.93
2019-03-15T03:03:31.152Z,6.96
2019-03-15T03:06:34.347Z,6.98
2019-03-15T03:09:37.616Z,7.00
2019-03-15T03:12:40.833Z,7.09
2019-03-15T03:15:44.013Z,7.14
2019-03-15T03:18:47.214Z,7.26
2019-03-15T03:21:50.435Z,7.22
2019-03-15T03:24:53.720Z,7.24
2019-03-15T03:27:56.929Z,7.28
2019-03-15T03:31:00.460Z,7.31
2019-03-15T03:34:03.692Z,7.37
2019-03-15T03:37:06.947Z,7.36
2019-03-15T03:40:10.204Z,7.37
2019-03-15T03:43:13.296Z,7.42
2019-03-15T03:46:16.464Z,7.44
2019-03-15T03:49:19.665Z,7.43
2019-03-15T03:52:22.873Z,7.46
2019-03-15T03:55:26.090Z,7.44
2019-03-15T03:58:29.299Z,7.40
2019-03-15T04:01:32.479Z,7.39
2019-03-15T04:04:35.645Z,7.38
2019-03-15T04:07:38.841Z,7.41
2019-03-15T04:10:41.923Z,7.41
2019-03-15T04:13:45.120Z,7.49
2019-03-15T04:16:48.236Z,7.49
2019-03-15T04:19:51.442Z,7.50
2019-03-15T04:22:55.512Z,7.51
2019-03-15T04:26:00.415Z,7.64
2019-03-15T04:29:03.569Z,7.63
2019-03-15T04:32:06.661Z,7.70
2019-03-15T04:35:09.857Z,7.69
2019-03-15T04:38:13.063Z,7.74
2019-03-15T04:41:16.332Z,7.74
2019-03-15T04:44:19.667Z,7.77
2019-03-15T04:47:22.811Z,7.77
2019-03-15T04:50:25.924Z,7.76
2019-03-15T04:53:29.476Z,7.74
2019-03-15T04:56:32.611Z,7.70
2019-03-15T04:59:35.831Z,7.69
2019-03-15T05:02:39.104Z,7.72
2019-03-15T05:05:42.316Z,7.76
2019-03-15T05:08:45.467Z,7.72
2019-03-15T05:11:48.560Z,7.76
2019-03-15T05:14:51.661Z,7.77
2019-03-15T05:17:54.772Z,7.76
2019-03-15T05:20:57.987Z,7.75
2019-03-15T05:24:01.288Z,7.74
2019-03-15T05:27:04.486Z,7.72
2019-03-15T05:30:07.911Z,7.70
2019-03-15T05:33:11.041Z,7.74
2019-03-15T05:36:14.324Z,7.76
2019-03-15T05:39:17.516Z,7.73
2019-03-15T05:42:20.719Z,7.74
2019-03-15T05:45:24.019Z,7.69
2019-03-15T05:48:27.218Z,7.70
2019-03-15T05:51:30.515Z,7.65
2019-03-15T05:54:34.323Z,7.65
2019-03-15T05:57:37.627Z,7.64
2019-03-15T06:00:40.798Z,7.62
2019-03-15T06:03:48.938Z,7.60
2019-03-15T06:06:47.224Z,7.60
2019-03-15T06:09:50.400Z,7.64
2019-03-15T06:12:53.683Z,7.64
2019-03-15T06:15:56.791Z,7.61
2019-03-15T06:18:59.988Z,7.57
2019-03-15T06:22:03.221Z,7.60
2019-03-15T06:25:06.368Z,7.63
2019-03-15T06:28:09.572Z,7.62
2019-03-15T06:31:12.764Z,7.62
2019-03-15T06:34:16.044Z,7.62
2019-03-15T06:37:19.238Z,7.59
2019-03-15T06:40:22.543Z,7.58
2019-03-15T06:43:25.832Z,7.61
2019-03-15T06:46:29.125Z,7.64
2019-03-15T06:49:32.353Z,7.65
2019-03-15T06:52:35.527Z,7.65
2019-03-15T06:55:38.749Z,7.69
2019-03-15T06:58:41.913Z,7.65
2019-03-15T07:01:45.119Z,7.65
2019-03-15T07:04:48.417Z,7.61
2019-03-15T07:07:51.720Z,7.64
2019-03-15T07:10:54.984Z,7.63
2019-03-15T07:13:58.187Z,7.62
2019-03-15T07:17:01.895Z,7.63
2019-03-15T07:20:05.807Z,7.66
2019-03-15T07:23:09.111Z,7.63
2019-03-15T07:26:15.825Z,7.62
2019-03-15T07:29:19.187Z,7.65
2019-03-15T07:32:22.172Z,7.64
2019-03-15T07:35:25.391Z,7.67
2019-03-15T07:38:28.695Z,7.66
2019-03-15T07:41:31.975Z,7.65
2019-03-15T07:44:35.560Z,7.65
2019-03-15T07:47:38.770Z,7.73
2019-03-15T07:50:41.974Z,7.71
2019-03-15T07:53:46.486Z,7.72
2019-03-15T07:56:49.685Z,7.70
2019-03-15T07:59:52.927Z,7.73
2019-03-15T08:02:56.096Z,7.76
2019-03-15T08:05:59.281Z,7.78
2019-03-15T08:09:02.554Z,7.77
2019-03-15T08:12:05.867Z,7.79
2019-03-15T08:15:09.118Z,7.81
2019-03-15T08:18:12.247Z,7.85
2019-03-15T08:21:15.419Z,7.82
2019-03-15T08:24:18.644Z,7.83
2019-03-15T08:27:21.860Z,7.88
2019-03-15T08:30:25.055Z,7.93
2019-03-15T08:33:28.350Z,7.94
2019-03-15T08:36:31.499Z,7.98
2019-03-15T08:39:34.624Z,8.04
2019-03-15T08:42:37.811Z,8.03
2019-03-15T08:45:41.012Z,8.02
2019-03-15T08:48:44.172Z,8.05
2019-03-15T08:51:47.317Z,8.10
2019-03-15T08:54:50.476Z,8.10
2019-03-15T08:57:54.043Z,8.13
2019-03-15T09:00:57.160Z,8.12
2019-03-15T09:04:00.435Z,8.13
2019-03-15T09:07:03.629Z,8.16
2019-03-15T09:10:21.271Z,8.20
2019-03-15T09:13:10.580Z,8.22
2019-03-15T09:16:13.773Z,8.23
2019-03-15T09:19:16.943Z,8.25
2019-03-15T09:22:20.184Z,8.26
2019-03-15T09:25:23.356Z,8.28
2019-03-15T09:28:26.525Z,8.37
2019-03-15T09:31:37.013Z,8.40
2019-03-15T09:34:32.911Z,8.40
2019-03-15T09:37:36.051Z,8.44
2019-03-15T09:40:39.216Z,8.47
2019-03-15T09:43:45.198Z,8.55
2019-03-15T09:46:45.604Z,8.61
2019-03-15T09:49:48.882Z,8.65
2019-03-15T09:52:51.992Z,8.72
2019-03-15T09:55:55.177Z,8.75
2019-03-15T09:58:58.401Z,8.80
2019-03-15T10:02:01.578Z,8.83
2019-03-15T10:05:10.648Z,8.88
2019-03-15T10:08:08.383Z,8.93
2019-03-15T10:11:11.567Z,9.00
2019-03-15T10:14:14.763Z,9.03
2019-03-15T10:17:17.935Z,9.06
2019-03-15T10:20:21.036Z,9.14
2019-03-15T10:23:24.129Z,9.13
2019-03-15T10:26:27.355Z,9.20
2019-03-15T10:29:30.509Z,9.26
2019-03-15T10:32:33.715Z,9.30
2019-03-15T10:35:36.884Z,9.36
2019-03-15T10:38:39.998Z,9.42
2019-03-15T10:41:43.196Z,9.44
2019-03-15T10:44:46.287Z,9.50
2019-03-15T10:47:49.491Z,9.59
2019-03-15T10:50:52.677Z,9.60
2019-03-15T10:53:55.883Z,9.69
2019-03-15T10:56:59.059Z,9.72
2019-03-15T11:00:02.274Z,9.81
2019-03-15T11:03:05.500Z,9.83
2019-03-15T11:06:08.598Z,9.85
2019-03-15T11:09:11.752Z,9.96
2019-03-15T11:12:14.939Z,9.96
2019-03-15T11:15:18.250Z,10.00
2019-03-15T11:18:21.418Z,10.05
2019-03-15T11:21:24.542Z,10.08
2019-03-15T11:24:27.808Z,10.13
2019-03-15T11:27:30.928Z,10.20
2019-03-15T11:30:34.104Z,10.29
2019-03-15T11:33:37.227Z,10.38
2019-03-15T11:36:40.398Z,10.40
2019-03-15T11:39:43.504Z,10.37
2019-03-15T11:42:46.699Z,10.46
2019-03-15T11:45:49.861Z,10.47
2019-03-15T11:48:53.014Z,10.52
2019-03-15T11:51:57.164Z,10.57
2019-03-15T11:55:00.471Z,10.64
2019-03-15T11:58:03.695Z,10.68
2019-03-15T12:01:06.875Z,10.72
2019-03-15T12:04:09.967Z,10.78
2019-03-15T12:07:13.294Z,10.84
2019-03-15T12:10:16.376Z,10.91
2019-03-15T12:13:19.551Z,10.93
2019-03-15T12:16:22.781Z,10.98
2019-03-15T12:19:25.921Z,11.02
2019-03-15T12:22:29.040Z,11.11
2019-03-15T12:25:32.255Z,11.18
2019-03-15T12:28:35.404Z,11.14
2019-03-15T12:31:39.095Z,11.13
2019-03-15T12:34:42.205Z,11.14
2019-03-15T12:37:45.308Z,11.22
2019-03-15T12:40:48.391Z,11.23
2019-03-15T12:43:51.504Z,11.23
2019-03-15T12:46:54.691Z,11.27
2019-03-15T12:49:57.975Z,11.32
2019-03-15T12:53:01.167Z,11.35
2019-03-15T12:56:04.291Z,11.39
2019-03-15T12:59:07.498Z,11.53
2019-03-15T13:02:10.597Z,11.60
2019-03-15T13:05:13.768Z,11.65
2019-03-15T13:08:17.009Z,11.72
2019-03-15T13:11:20.182Z,11.76
2019-03-15T13:14:23.361Z,11.84
2019-03-15T13:17:26.664Z,11.91
2019-03-15T13:20:29.875Z,12.03
2019-03-15T13:23:33.124Z,12.00
2019-03-15T13:26:36.342Z,11.98
2019-03-15T13:29:39.500Z,12.00
2019-03-15T13:32:42.726Z,12.01
2019-03-15T13:35:46.007Z,12.04
2019-03-15T13:38:49.216Z,12.21
2019-03-15T13:41:52.411Z,12.20
2019-03-15T13:44:55.506Z,12.22
2019-03-15T13:47:58.679Z,12.18
2019-03-15T13:51:01.860Z,12.20
2019-03-15T13:54:04.975Z,12.18
2019-03-15T13:57:20.265Z,12.12
2019-03-15T14:00:12.040Z,12.12
2019-03-15T14:03:15.151Z,12.14
2019-03-15T14:06:18.270Z,12.08
2019-03-15T14:09:21.463Z,12.03
2019-03-15T14:12:24.662Z,12.01
2019-03-15T14:15:27.828Z,11.95
2019-03-15T14:18:31.037Z,11.96
2019-03-15T14:21:34.248Z,11.92
2019-03-15T14:24:37.409Z,11.85
2019-03-15T14:27:40.654Z,11.78
2019-03-15T14:30:43.822Z,11.71
2019-03-15T14:33:47.018Z,11.70
2019-03-15T14:36:50.212Z,11.67
2019-03-15T14:39:53.484Z,11.69
2019-03-15T14:42:56.507Z,11.71
2019-03-15T14:45:59.697Z,11.73
2019-03-15T14:49:02.892Z,11.74
2019-03-15T14:52:05.980Z,11.74
2019-03-15T14:55:09.208Z,11.72
2019-03-15T14:58:12.365Z,11.74
2019-03-15T15:01:15.548Z,11.73
2019-03-15T15:04:18.764Z,11.72
2019-03-15T15:07:21.946Z,11.69
2019-03-15T15:10:25.050Z,11.70
2019-03-15T15:13:28.268Z,11.69
2019-03-15T15:16:31.456Z,11.67
2019-03-15T15:19:34.717Z,11.71
2019-03-15T15:22:37.940Z,11.67
2019-03-15T15:25:41.107Z,11.64
2019-03-15T15:28:44.206Z,11.61
2019-03-15T15:31:47.311Z,11.65
2019-03-15T15:34:50.503Z,11.58
2019-03-15T15:37:53.679Z,11.57
2019-03-15T15:40:56.919Z,11.51
2019-03-15T15:44:00.076Z,11.55
2019-03-15T15:47:03.287Z,11.53
2019-03-15T15:50:06.967Z,11.54
2019-03-15T15:53:11.250Z,11.48
2019-03-15T15:56:13.471Z,11.47
2019-03-15T15:59:16.672Z,11.44
2019-03-15T16:02:19.899Z,11.48
2019-03-15T16:05:23.059Z,11.43
2019-03-15T16:08:26.237Z,11.43
2019-03-15T16:11:29.428Z,11.48
2019-03-15T16:14:32.641Z,11.44
2019-03-15T16:17:36.867Z,11.42
2019-03-15T16:20:40.056Z,11.42
2019-03-15T16:23:43.253Z,11.45
2019-03-15T16:26:46.449Z,11.45
2019-03-15T16:29:49.637Z,11.41
2019-03-15T16:32:52.967Z,11.44
2019-03-15T16:36:01.286Z,11.43
2019-03-15T16:39:05.950Z,11.37
2019-03-15T16:42:09.064Z,11.34
2019-03-15T16:45:15.174Z,11.32
2019-03-15T16:48:16.992Z,11.32
2019-03-15T16:51:20.294Z,11.35
2019-03-15T16:54:23.577Z,11.34
2019-03-15T16:57:26.791Z,11.29
2019-03-15T17:00:29.991Z,11.31
2019-03-15T17:03:33.320Z,11.29
2019-03-15T17:06:36.579Z,11.28
2019-03-15T17:09:40.327Z,11.28
2019-03-15T17:12:43.679Z,11.29
2019-03-15T17:15:46.932Z,11.31
2019-03-15T17:18:50.176Z,11.29
2019-03-15T17:21:53.441Z,11.29
2019-03-15T17:24:56.645Z,11.30
2019-03-15T17:27:59.871Z,11.29
2019-03-15T17:31:09.649Z,11.31
2019-03-15T17:34:06.374Z,11.30
2019-03-15T17:37:09.626Z,11.29
2019-03-15T17:40:12.973Z,11.27
2019-03-15T17:43:16.119Z,11.26
2019-03-15T17:46:19.216Z,11.29
2019-03-15T17:49:22.413Z,11.27
2019-03-15T17:52:25.622Z,11.29
2019-03-15T17:55:28.822Z,11.26
2019-03-15T17:58:32.027Z,11.27
2019-03-15T18:01:35.196Z,11.27
2019-03-15T18:04:38.380Z,11.27
2019-03-15T18:07:41.596Z,11.26
2019-03-15T18:10:44.876Z,11.28
2019-03-15T18:13:48.284Z,11.28
2019-03-15T18:16:53.625Z,11.32
2019-03-15T18:19:56.907Z,11.32
2019-03-15T18:23:00.116Z,11.30
2019-03-15T18:26:03.314Z,11.33
2019-03-15T18:29:06.512Z,11.33
2019-03-15T18:32:09.910Z,11.32
2019-03-15T18:35:13.117Z,11.35
2019-03-15T18:38:16.189Z,11.35
2019-03-15T18:41:19.296Z,11.37
2019-03-15T18:44:22.486Z,11.39
2019-03-15T18:47:25.588Z,11.38
2019-03-15T18:50:28.774Z,11.35
2019-03-15T18:53:32.611Z,11.35
2019-03-15T18:56:35.770Z,11.37
2019-03-15T18:59:40.503Z,11.38
2019-03-15T19:02:42.475Z,11.37
2019-03-15T19:05:45.652Z,11.38
2019-03-15T19:08:48.925Z,11.36
2019-03-15T19:11:52.043Z,11.35
2019-03-15T19:14:55.215Z,11.34
2019-03-15T19:17:58.451Z,11.39
2019-03-15T19:21:01.524Z,11.38
2019-03-15T19:24:04.736Z,11.40
2019-03-15T19:27:07.931Z,11.44
2019-03-15T19:30:11.900Z,11.46
2019-03-15T19:33:15.055Z,11.42
2019-03-15T19:36:18.207Z,11.43
2019-03-15T19:39:21.408Z,11.44
2019-03-15T19:42:24.760Z,11.42
2019-03-15T19:45:27.941Z,11.49
2019-03-15T19:48:31.244Z,11.45
2019-03-15T19:51:34.400Z,11.44
2019-03-15T19:54:37.612Z,11.46
2019-03-15T19:57:40.804Z,11.45
2019-03-15T20:00:48.782Z,11.45
2019-03-15T20:03:52.208Z,11.42
2019-03-15T20:06:55.456Z,11.41
2019-03-15T20:09:58.604Z,11.43
2019-03-15T20:13:02.823Z,11.46
2019-03-15T20:16:04.872Z,11.50
2019-03-15T20:19:08.119Z,11.47
2019-03-15T20:22:11.263Z,11.47
2019-03-15T20:25:14.457Z,11.50
2019-03-15T20:28:17.643Z,11.48
2019-03-15T20:31:20.853Z,11.46
2019-03-15T20:34:24.031Z,11.50
2019-03-15T20:37:27.227Z,11.46
2019-03-15T20:40:30.463Z,11.45
2019-03-15T20:43:33.632Z,11.47
2019-03-15T20:46:36.793Z,11.52
2019-03-15T20:49:39.912Z,11.54
2019-03-15T20:52:43.114Z,11.53
2019-03-15T20:55:46.405Z,11.50
2019-03-15T20:58:49.488Z,11.50
2019-03-15T21:01:52.677Z,11.53
2019-03-15T21:04:55.909Z,11.50
2019-03-15T21:07:59.073Z,11.55
2019-03-15T21:11:02.272Z,11.59
2019-03-15T21:14:05.447Z,11.58
2019-03-15T21:17:08.736Z,11.61
2019-03-15T21:20:12.096Z,11.55
2019-03-15T21:23:15.239Z,11.59
2019-03-15T21:26:18.446Z,11.61
2019-03-15T21:29:21.630Z,11.68
2019-03-15T21:32:24.888Z,11.70
2019-03-15T21:35:28.029Z,11.71
2019-03-15T21:38:31.145Z,11.73
2019-03-15T21:41:34.219Z,11.69
2019-03-15T21:44:37.467Z,11.66
2019-03-15T21:47:40.780Z,11.67
2019-03-15T21:50:44.013Z,11.68
2019-03-15T21:53:47.230Z,11.71
2019-03-15T21:56:50.342Z,11.67
2019-03-15T21:59:53.604Z,11.62
2019-03-15T22:02:56.862Z,11.58
2019-03-15T22:06:00.195Z,11.56
2019-03-15T22:09:03.411Z,11.57
2019-03-15T22:12:06.683Z,11.55
2019-03-15T22:15:09.852Z,11.56
2019-03-15T22:18:12.944Z,11.53
2019-03-15T22:21:16.058Z,11.52
2019-03-15T22:24:19.235Z,11.50
2019-03-15T22:27:22.432Z,11.47
2019-03-15T22:30:25.535Z,11.44
2019-03-15T22:33:28.713Z,11.37
2019-03-15T22:36:31.856Z,11.35
2019-03-15T22:39:35.034Z,11.37
2019-03-15T22:42:38.210Z,11.37
2019-03-15T22:45:41.508Z,11.38
2019-03-15T22:48:44.743Z,11.39
2019-03-15T22:51:47.911Z,11.40
2019-03-15T22:54:51.180Z,11.34
2019-03-15T22:57:59.774Z,11.36
2019-03-15T23:00:57.499Z,11.35
2019-03-15T23:04:00.674Z,11.36
2019-03-15T23:07:03.752Z,11.34
2019-03-15T23:10:07.473Z,11.31
2019-03-15T23:13:10.667Z,11.31
2019-03-15T23:16:13.875Z,11.28
2019-03-15T23:19:17.217Z,11.27
2019-03-15T23:22:20.471Z,11.23
2019-03-15T23:25:23.690Z,11.22
2019-03-15T23:28:26.791Z,11.20
2019-03-15T23:31:42.656Z,11.22
2019-03-15T23:34:33.119Z,11.20
2019-03-15T23:37:36.386Z,11.22
2019-03-15T23:40:39.723Z,11.21
2019-03-15T23:43:42.831Z,11.17
2019-03-15T23:46:46.012Z,11.16
2019-03-15T23:49:49.204Z,11.16
2019-03-15T23:52:52.411Z,11.15
2019-03-15T23:55:55.576Z,11.15
2019-03-15T23:58:59.610Z,11.12
